<?xml version="1.0" encoding="UTF-8" standalone="no" ?>
<gpx xmlns="http://www.topografix.com/GPX/1/1" xmlns:xsi="http://www.w3.org/2001/XMLSchema-instance" xsi:schemaLocation="http://www.topografix.com/GPX/1/1 http://www.topografix.com/GPX/1/1/gpx.xsd" version="1.1" creator="VisuGPX - https://www.visugpx.com">
  <metadata>
    <name>le sentier des bornes</name>
  </metadata>
  <trk>
    <name><![CDATA[le sentier des bornes]]></name>
    <trkseg>
      <trkpt lat="46.83239" lon="6.42527">
        <ele>1141</ele>
        <time>2021-11-19T17:32:47+01:00</time>
      </trkpt>
      <trkpt lat="46.8311" lon="6.42685">
        <ele>1139</ele>
        <time>2021-11-19T17:32:52+01:00</time>
      </trkpt>
      <trkpt lat="46.82978" lon="6.42848">
        <ele>1140</ele>
        <time>2021-11-19T17:32:57+01:00</time>
      </trkpt>
      <trkpt lat="46.82887" lon="6.43011">
        <ele>1141</ele>
        <time>2021-11-19T17:33:02+01:00</time>
      </trkpt>
      <trkpt lat="46.82849" lon="6.43072">
        <ele>1141</ele>
        <time>2021-11-19T17:33:07+01:00</time>
      </trkpt>
      <trkpt lat="46.82781" lon="6.43179">
        <ele>1140</ele>
        <time>2021-11-19T17:33:12+01:00</time>
      </trkpt>
      <trkpt lat="46.8274" lon="6.43196">
        <ele>1138</ele>
        <time>2021-11-19T17:33:17+01:00</time>
      </trkpt>
      <trkpt lat="46.82722" lon="6.43368">
        <ele>1130</ele>
        <time>2021-11-19T17:33:22+01:00</time>
      </trkpt>
      <trkpt lat="46.82605" lon="6.43557">
        <ele>1118</ele>
        <time>2021-11-19T17:33:27+01:00</time>
      </trkpt>
      <trkpt lat="46.82446" lon="6.43767">
        <ele>1110</ele>
        <time>2021-11-19T17:33:32+01:00</time>
      </trkpt>
      <trkpt lat="46.82332" lon="6.43698">
        <ele>1107</ele>
        <time>2021-11-19T17:33:37+01:00</time>
      </trkpt>
      <trkpt lat="46.82264" lon="6.43629">
        <ele>1108</ele>
        <time>2021-11-19T17:33:42+01:00</time>
      </trkpt>
      <trkpt lat="46.82211" lon="6.43561">
        <ele>1109</ele>
        <time>2021-11-19T17:33:47+01:00</time>
      </trkpt>
      <trkpt lat="46.82147" lon="6.43406">
        <ele>1110</ele>
        <time>2021-11-19T17:33:52+01:00</time>
      </trkpt>
      <trkpt lat="46.82056" lon="6.43226">
        <ele>1111</ele>
        <time>2021-11-19T17:33:57+01:00</time>
      </trkpt>
      <trkpt lat="46.8198" lon="6.43333">
        <ele>1113</ele>
        <time>2021-11-19T17:34:02+01:00</time>
      </trkpt>
      <trkpt lat="46.81956" lon="6.43402">
        <ele>1112</ele>
        <time>2021-11-19T17:34:07+01:00</time>
      </trkpt>
      <trkpt lat="46.8188" lon="6.43492">
        <ele>1110</ele>
        <time>2021-11-19T17:34:12+01:00</time>
      </trkpt>
      <trkpt lat="46.81818" lon="6.43569">
        <ele>1109</ele>
        <time>2021-11-19T17:34:17+01:00</time>
      </trkpt>
      <trkpt lat="46.8178" lon="6.43629">
        <ele>1105</ele>
        <time>2021-11-19T17:34:22+01:00</time>
      </trkpt>
      <trkpt lat="46.8173" lon="6.43664">
        <ele>1101</ele>
        <time>2021-11-19T17:34:27+01:00</time>
      </trkpt>
      <trkpt lat="46.81709" lon="6.43621">
        <ele>1102</ele>
        <time>2021-11-19T17:34:32+01:00</time>
      </trkpt>
      <trkpt lat="46.81624" lon="6.43561">
        <ele>1099</ele>
        <time>2021-11-19T17:34:37+01:00</time>
      </trkpt>
      <trkpt lat="46.81589" lon="6.43501">
        <ele>1099</ele>
        <time>2021-11-19T17:34:42+01:00</time>
      </trkpt>
      <trkpt lat="46.8156" lon="6.43441">
        <ele>1101</ele>
        <time>2021-11-19T17:34:47+01:00</time>
      </trkpt>
      <trkpt lat="46.81504" lon="6.43192">
        <ele>1107</ele>
        <time>2021-11-19T17:34:52+01:00</time>
      </trkpt>
      <trkpt lat="46.81468" lon="6.43067">
        <ele>1109</ele>
        <time>2021-11-19T17:34:57+01:00</time>
      </trkpt>
      <trkpt lat="46.81445" lon="6.42908">
        <ele>1112</ele>
        <time>2021-11-19T17:35:02+01:00</time>
      </trkpt>
      <trkpt lat="46.81401" lon="6.42771">
        <ele>1120</ele>
        <time>2021-11-19T17:35:07+01:00</time>
      </trkpt>
      <trkpt lat="46.81375" lon="6.42681">
        <ele>1129</ele>
        <time>2021-11-19T17:35:12+01:00</time>
      </trkpt>
      <trkpt lat="46.81363" lon="6.42565">
        <ele>1134</ele>
        <time>2021-11-19T17:35:17+01:00</time>
      </trkpt>
      <trkpt lat="46.81319" lon="6.42514">
        <ele>1142</ele>
        <time>2021-11-19T17:35:22+01:00</time>
      </trkpt>
      <trkpt lat="46.81295" lon="6.42454">
        <ele>1146</ele>
        <time>2021-11-19T17:35:27+01:00</time>
      </trkpt>
      <trkpt lat="46.81213" lon="6.42445">
        <ele>1164</ele>
        <time>2021-11-19T17:35:32+01:00</time>
      </trkpt>
      <trkpt lat="46.81172" lon="6.42492">
        <ele>1171</ele>
        <time>2021-11-19T17:35:37+01:00</time>
      </trkpt>
      <trkpt lat="46.81107" lon="6.42544">
        <ele>1183</ele>
        <time>2021-11-19T17:35:42+01:00</time>
      </trkpt>
      <trkpt lat="46.81048" lon="6.42561">
        <ele>1184</ele>
        <time>2021-11-19T17:35:47+01:00</time>
      </trkpt>
      <trkpt lat="46.81025" lon="6.4263">
        <ele>1180</ele>
        <time>2021-11-19T17:35:52+01:00</time>
      </trkpt>
      <trkpt lat="46.80955" lon="6.42642">
        <ele>1176</ele>
        <time>2021-11-19T17:35:57+01:00</time>
      </trkpt>
      <trkpt lat="46.80925" lon="6.42724">
        <ele>1172</ele>
        <time>2021-11-19T17:36:02+01:00</time>
      </trkpt>
      <trkpt lat="46.80931" lon="6.42887">
        <ele>1162</ele>
        <time>2021-11-19T17:36:07+01:00</time>
      </trkpt>
      <trkpt lat="46.80931" lon="6.42986">
        <ele>1156</ele>
        <time>2021-11-19T17:36:12+01:00</time>
      </trkpt>
      <trkpt lat="46.80869" lon="6.43102">
        <ele>1148</ele>
        <time>2021-11-19T17:36:17+01:00</time>
      </trkpt>
      <trkpt lat="46.80866" lon="6.43213">
        <ele>1142</ele>
        <time>2021-11-19T17:36:22+01:00</time>
      </trkpt>
      <trkpt lat="46.80896" lon="6.43303">
        <ele>1136</ele>
        <time>2021-11-19T17:36:27+01:00</time>
      </trkpt>
      <trkpt lat="46.80908" lon="6.43342">
        <ele>1133</ele>
        <time>2021-11-19T17:36:32+01:00</time>
      </trkpt>
      <trkpt lat="46.80969" lon="6.43419">
        <ele>1128</ele>
        <time>2021-11-19T17:36:37+01:00</time>
      </trkpt>
      <trkpt lat="46.80987" lon="6.43526">
        <ele>1125</ele>
        <time>2021-11-19T17:36:42+01:00</time>
      </trkpt>
      <trkpt lat="46.80999" lon="6.43651">
        <ele>1122</ele>
        <time>2021-11-19T17:36:47+01:00</time>
      </trkpt>
      <trkpt lat="46.80999" lon="6.43775">
        <ele>1120</ele>
        <time>2021-11-19T17:36:52+01:00</time>
      </trkpt>
      <trkpt lat="46.80999" lon="6.43848">
        <ele>1120</ele>
        <time>2021-11-19T17:36:57+01:00</time>
      </trkpt>
      <trkpt lat="46.81093" lon="6.43788">
        <ele>1118</ele>
        <time>2021-11-19T17:37:02+01:00</time>
      </trkpt>
      <trkpt lat="46.81151" lon="6.43745">
        <ele>1117</ele>
        <time>2021-11-19T17:37:07+01:00</time>
      </trkpt>
      <trkpt lat="46.81184" lon="6.43763">
        <ele>1115</ele>
        <time>2021-11-19T17:37:12+01:00</time>
      </trkpt>
      <trkpt lat="46.81239" lon="6.43711">
        <ele>1111</ele>
        <time>2021-11-19T17:37:17+01:00</time>
      </trkpt>
      <trkpt lat="46.8131" lon="6.43685">
        <ele>1105</ele>
        <time>2021-11-19T17:37:22+01:00</time>
      </trkpt>
      <trkpt lat="46.81351" lon="6.43668">
        <ele>1103</ele>
        <time>2021-11-19T17:37:27+01:00</time>
      </trkpt>
      <trkpt lat="46.8141" lon="6.43638">
        <ele>1106</ele>
        <time>2021-11-19T17:37:32+01:00</time>
      </trkpt>
      <trkpt lat="46.81466" lon="6.43724">
        <ele>1103</ele>
        <time>2021-11-19T17:37:37+01:00</time>
      </trkpt>
      <trkpt lat="46.81527" lon="6.43904">
        <ele>1098</ele>
        <time>2021-11-19T17:37:42+01:00</time>
      </trkpt>
      <trkpt lat="46.81592" lon="6.44114">
        <ele>1095</ele>
        <time>2021-11-19T17:37:47+01:00</time>
      </trkpt>
      <trkpt lat="46.81745" lon="6.44089">
        <ele>1095</ele>
        <time>2021-11-19T17:37:52+01:00</time>
      </trkpt>
      <trkpt lat="46.8183" lon="6.44072">
        <ele>1095</ele>
        <time>2021-11-19T17:37:57+01:00</time>
      </trkpt>
      <trkpt lat="46.81888" lon="6.44106">
        <ele>1097</ele>
        <time>2021-11-19T17:38:02+01:00</time>
      </trkpt>
      <trkpt lat="46.81962" lon="6.4414">
        <ele>1095</ele>
        <time>2021-11-19T17:38:07+01:00</time>
      </trkpt>
      <trkpt lat="46.82018" lon="6.44067">
        <ele>1093</ele>
        <time>2021-11-19T17:38:12+01:00</time>
      </trkpt>
      <trkpt lat="46.82097" lon="6.44033">
        <ele>1090</ele>
        <time>2021-11-19T17:38:17+01:00</time>
      </trkpt>
      <trkpt lat="46.82226" lon="6.4402">
        <ele>1091</ele>
        <time>2021-11-19T17:38:22+01:00</time>
      </trkpt>
      <trkpt lat="46.82303" lon="6.44046">
        <ele>1094</ele>
        <time>2021-11-19T17:38:27+01:00</time>
      </trkpt>
      <trkpt lat="46.82379" lon="6.44007">
        <ele>1098</ele>
        <time>2021-11-19T17:38:32+01:00</time>
      </trkpt>
      <trkpt lat="46.82417" lon="6.43947">
        <ele>1103</ele>
        <time>2021-11-19T17:38:37+01:00</time>
      </trkpt>
      <trkpt lat="46.82584" lon="6.4402">
        <ele>1110</ele>
        <time>2021-11-19T17:38:42+01:00</time>
      </trkpt>
      <trkpt lat="46.82808" lon="6.44127">
        <ele>1103</ele>
        <time>2021-11-19T17:38:47+01:00</time>
      </trkpt>
      <trkpt lat="46.82931" lon="6.44179">
        <ele>1101</ele>
        <time>2021-11-19T17:38:52+01:00</time>
      </trkpt>
      <trkpt lat="46.82993" lon="6.44316">
        <ele>1099</ele>
        <time>2021-11-19T17:38:57+01:00</time>
      </trkpt>
      <trkpt lat="46.83001" lon="6.44441">
        <ele>1094</ele>
        <time>2021-11-19T17:39:02+01:00</time>
      </trkpt>
      <trkpt lat="46.83037" lon="6.44574">
        <ele>1090</ele>
        <time>2021-11-19T17:39:07+01:00</time>
      </trkpt>
      <trkpt lat="46.83034" lon="6.44715">
        <ele>1087</ele>
        <time>2021-11-19T17:39:12+01:00</time>
      </trkpt>
      <trkpt lat="46.83166" lon="6.44848">
        <ele>1088</ele>
        <time>2021-11-19T17:39:17+01:00</time>
      </trkpt>
      <trkpt lat="46.83289" lon="6.45041">
        <ele>1093</ele>
        <time>2021-11-19T17:39:22+01:00</time>
      </trkpt>
      <trkpt lat="46.8328" lon="6.45157">
        <ele>1093</ele>
        <time>2021-11-19T17:39:27+01:00</time>
      </trkpt>
      <trkpt lat="46.83304" lon="6.45316">
        <ele>1099</ele>
        <time>2021-11-19T17:39:32+01:00</time>
      </trkpt>
      <trkpt lat="46.83365" lon="6.45569">
        <ele>1098</ele>
        <time>2021-11-19T17:39:37+01:00</time>
      </trkpt>
      <trkpt lat="46.83339" lon="6.45625">
        <ele>1094</ele>
        <time>2021-11-19T17:39:42+01:00</time>
      </trkpt>
      <trkpt lat="46.83363" lon="6.45737">
        <ele>1094</ele>
        <time>2021-11-19T17:39:47+01:00</time>
      </trkpt>
      <trkpt lat="46.83357" lon="6.45891">
        <ele>1095</ele>
        <time>2021-11-19T17:39:52+01:00</time>
      </trkpt>
      <trkpt lat="46.83324" lon="6.46106">
        <ele>1090</ele>
        <time>2021-11-19T17:39:57+01:00</time>
      </trkpt>
      <trkpt lat="46.83257" lon="6.46204">
        <ele>1086</ele>
        <time>2021-11-19T17:40:02+01:00</time>
      </trkpt>
      <trkpt lat="46.83459" lon="6.46312">
        <ele>1098</ele>
        <time>2021-11-19T17:40:07+01:00</time>
      </trkpt>
      <trkpt lat="46.83495" lon="6.46277">
        <ele>1102</ele>
        <time>2021-11-19T17:40:12+01:00</time>
      </trkpt>
      <trkpt lat="46.83547" lon="6.46243">
        <ele>1104</ele>
        <time>2021-11-19T17:40:17+01:00</time>
      </trkpt>
      <trkpt lat="46.83577" lon="6.46355">
        <ele>1109</ele>
        <time>2021-11-19T17:40:22+01:00</time>
      </trkpt>
      <trkpt lat="46.83597" lon="6.46483">
        <ele>1115</ele>
        <time>2021-11-19T17:40:27+01:00</time>
      </trkpt>
      <trkpt lat="46.83633" lon="6.46509">
        <ele>1120</ele>
        <time>2021-11-19T17:40:32+01:00</time>
      </trkpt>
      <trkpt lat="46.83794" lon="6.4644">
        <ele>1110</ele>
        <time>2021-11-19T17:40:37+01:00</time>
      </trkpt>
      <trkpt lat="46.83897" lon="6.46209">
        <ele>1106</ele>
        <time>2021-11-19T17:40:42+01:00</time>
      </trkpt>
      <trkpt lat="46.83997" lon="6.46097">
        <ele>1104</ele>
        <time>2021-11-19T17:40:47+01:00</time>
      </trkpt>
      <trkpt lat="46.84099" lon="6.45951">
        <ele>1112</ele>
        <time>2021-11-19T17:40:52+01:00</time>
      </trkpt>
      <trkpt lat="46.84138" lon="6.45728">
        <ele>1125</ele>
        <time>2021-11-19T17:40:57+01:00</time>
      </trkpt>
      <trkpt lat="46.84184" lon="6.45689">
        <ele>1124</ele>
        <time>2021-11-19T17:41:02+01:00</time>
      </trkpt>
      <trkpt lat="46.84193" lon="6.45655">
        <ele>1127</ele>
        <time>2021-11-19T17:41:07+01:00</time>
      </trkpt>
      <trkpt lat="46.84208" lon="6.45556">
        <ele>1136</ele>
        <time>2021-11-19T17:41:12+01:00</time>
      </trkpt>
      <trkpt lat="46.84214" lon="6.45488">
        <ele>1141</ele>
        <time>2021-11-19T17:41:17+01:00</time>
      </trkpt>
      <trkpt lat="46.84199" lon="6.45376">
        <ele>1145</ele>
        <time>2021-11-19T17:41:22+01:00</time>
      </trkpt>
      <trkpt lat="46.84264" lon="6.4535">
        <ele>1145</ele>
        <time>2021-11-19T17:41:27+01:00</time>
      </trkpt>
      <trkpt lat="46.8432" lon="6.45342">
        <ele>1145</ele>
        <time>2021-11-19T17:41:32+01:00</time>
      </trkpt>
      <trkpt lat="46.84349" lon="6.45453">
        <ele>1142</ele>
        <time>2021-11-19T17:41:37+01:00</time>
      </trkpt>
      <trkpt lat="46.84375" lon="6.45518">
        <ele>1142</ele>
        <time>2021-11-19T17:41:42+01:00</time>
      </trkpt>
      <trkpt lat="46.84428" lon="6.45569">
        <ele>1141</ele>
        <time>2021-11-19T17:41:47+01:00</time>
      </trkpt>
      <trkpt lat="46.84466" lon="6.45526">
        <ele>1143</ele>
        <time>2021-11-19T17:41:52+01:00</time>
      </trkpt>
      <trkpt lat="46.84531" lon="6.45449">
        <ele>1147</ele>
        <time>2021-11-19T17:41:57+01:00</time>
      </trkpt>
      <trkpt lat="46.84584" lon="6.45359">
        <ele>1162</ele>
        <time>2021-11-19T17:42:02+01:00</time>
      </trkpt>
      <trkpt lat="46.84551" lon="6.4526">
        <ele>1158</ele>
        <time>2021-11-19T17:42:07+01:00</time>
      </trkpt>
      <trkpt lat="46.84493" lon="6.45204">
        <ele>1157</ele>
        <time>2021-11-19T17:42:12+01:00</time>
      </trkpt>
      <trkpt lat="46.84449" lon="6.45149">
        <ele>1157</ele>
        <time>2021-11-19T17:42:17+01:00</time>
      </trkpt>
      <trkpt lat="46.84419" lon="6.45093">
        <ele>1158</ele>
        <time>2021-11-19T17:42:22+01:00</time>
      </trkpt>
      <trkpt lat="46.84399" lon="6.44913">
        <ele>1159</ele>
        <time>2021-11-19T17:42:27+01:00</time>
      </trkpt>
      <trkpt lat="46.84358" lon="6.4481">
        <ele>1157</ele>
        <time>2021-11-19T17:42:32+01:00</time>
      </trkpt>
      <trkpt lat="46.84314" lon="6.44745">
        <ele>1154</ele>
        <time>2021-11-19T17:42:37+01:00</time>
      </trkpt>
      <trkpt lat="46.84264" lon="6.44698">
        <ele>1158</ele>
        <time>2021-11-19T17:42:42+01:00</time>
      </trkpt>
      <trkpt lat="46.8417" lon="6.44629">
        <ele>1160</ele>
        <time>2021-11-19T17:42:47+01:00</time>
      </trkpt>
      <trkpt lat="46.84088" lon="6.44531">
        <ele>1164</ele>
        <time>2021-11-19T17:42:52+01:00</time>
      </trkpt>
      <trkpt lat="46.84073" lon="6.44449">
        <ele>1171</ele>
        <time>2021-11-19T17:42:57+01:00</time>
      </trkpt>
      <trkpt lat="46.83985" lon="6.44432">
        <ele>1174</ele>
        <time>2021-11-19T17:43:02+01:00</time>
      </trkpt>
      <trkpt lat="46.83997" lon="6.44329">
        <ele>1181</ele>
        <time>2021-11-19T17:43:07+01:00</time>
      </trkpt>
      <trkpt lat="46.84008" lon="6.44174">
        <ele>1184</ele>
        <time>2021-11-19T17:43:12+01:00</time>
      </trkpt>
      <trkpt lat="46.84002" lon="6.44054">
        <ele>1180</ele>
        <time>2021-11-19T17:43:17+01:00</time>
      </trkpt>
      <trkpt lat="46.84026" lon="6.43969">
        <ele>1180</ele>
        <time>2021-11-19T17:43:22+01:00</time>
      </trkpt>
      <trkpt lat="46.84008" lon="6.4369">
        <ele>1174</ele>
        <time>2021-11-19T17:43:27+01:00</time>
      </trkpt>
      <trkpt lat="46.83976" lon="6.43539">
        <ele>1170</ele>
        <time>2021-11-19T17:43:32+01:00</time>
      </trkpt>
      <trkpt lat="46.83829" lon="6.43316">
        <ele>1159</ele>
        <time>2021-11-19T17:43:37+01:00</time>
      </trkpt>
      <trkpt lat="46.83735" lon="6.43153">
        <ele>1150</ele>
        <time>2021-11-19T17:43:42+01:00</time>
      </trkpt>
      <trkpt lat="46.83636" lon="6.43033">
        <ele>1144</ele>
        <time>2021-11-19T17:43:47+01:00</time>
      </trkpt>
      <trkpt lat="46.83536" lon="6.42904">
        <ele>1140</ele>
        <time>2021-11-19T17:43:52+01:00</time>
      </trkpt>
      <trkpt lat="46.83509" lon="6.43102">
        <ele>1140</ele>
        <time>2021-11-19T17:43:57+01:00</time>
      </trkpt>
      <trkpt lat="46.83459" lon="6.43243">
        <ele>1140</ele>
        <time>2021-11-19T17:44:02+01:00</time>
      </trkpt>
      <trkpt lat="46.83427" lon="6.43252">
        <ele>1140</ele>
        <time>2021-11-19T17:44:07+01:00</time>
      </trkpt>
      <trkpt lat="46.83318" lon="6.43166">
        <ele>1140</ele>
        <time>2021-11-19T17:44:12+01:00</time>
      </trkpt>
      <trkpt lat="46.83154" lon="6.42994">
        <ele>1140</ele>
        <time>2021-11-19T17:44:17+01:00</time>
      </trkpt>
      <trkpt lat="46.83274" lon="6.42672">
        <ele>1139</ele>
        <time>2021-11-19T17:44:22+01:00</time>
      </trkpt>
      <trkpt lat="46.83216" lon="6.42578">
        <ele>1138</ele>
        <time>2021-11-19T17:44:27+01:00</time>
      </trkpt>
      <trkpt lat="46.83257" lon="6.42522">
        <ele>1141</ele>
        <time>2021-11-19T17:44:32+01:00</time>
      </trkpt>
    </trkseg>
  </trk>
</gpx>